Time;durP1;ratioP1;P1;durP2;ratioP2;P2;SDS_P1;SDS_P2;PMS_P1;PMS_P2;Temp;Humidity;BMP_temperature;BMP_pressure;BME280_temperature;BME280_humidity;BME280_pressure;Samples;Min_cycle;Max_cycle;Signal;HPM_P1;HPM_P2
2023/09/26 00:02:20;;;;;;;8.25;5.05;;;;;;;12.56;59.67;97568.00;6317773;28;20468;-69
2023/09/26 00:05:24;;;;;;;6.35;5.10;;;;;;;12.52;59.72;97567.34;6318511;28;20066;-69
2023/09/26 00:08:29;;;;;;;6.47;4.97;;;;;;;12.42;59.97;97568.84;6318131;28;20040;-69
2023/09/26 00:11:34;;;;;;;9.05;4.78;;;;;;;12.26;60.54;97562.81;6318466;28;20056;-69
2023/09/26 00:14:37;;;;;;;8.05;5.38;;;;;;;12.20;60.73;97560.53;6318572;28;20036;-69
2023/09/26 00:17:41;;;;;;;8.40;5.32;;;;;;;12.09;60.91;97558.56;6317909;28;20067;-69
2023/09/26 00:20:44;;;;;;;7.43;5.03;;;;;;;12.09;61.04;97561.19;6318384;28;20063;-70
2023/09/26 00:23:51;;;;;;;;;;;;;;;11.97;60.58;97564.56;6318807;28;20040;-70
2023/09/26 00:26:55;;;;;;;7.53;4.78;;;;;;;11.93;61.09;97558.63;6318332;28;20354;-70
2023/09/26 00:29:59;;;;;;;8.95;5.60;;;;;;;11.90;61.29;97558.81;6317662;28;20051;-70
2023/09/26 00:33:03;;;;;;;12.07;5.85;;;;;;;11.92;61.54;97556.94;6320756;28;20036;-69
2023/09/26 00:36:13;;;;;;;10.57;5.25;;;;;;;11.87;61.60;97553.72;6323230;28;20055;-70
2023/09/26 00:39:14;;;;;;;10.38;6.13;;;;;;;11.96;61.80;97552.31;6317945;28;20135;-70
2023/09/26 00:42:18;;;;;;;6.60;5.38;;;;;;;12.00;61.79;97553.81;6320236;28;20036;-70
2023/09/26 00:45:22;;;;;;;;;;;;;;;11.97;61.12;97549.56;6322810;28;20436;-70
2023/09/26 00:48:28;;;;;;;9.02;5.90;;;;;;;12.07;61.62;97560.44;6321405;28;19923;-70
2023/09/26 00:51:31;;;;;;;8.05;6.25;;;;;;;12.11;61.62;97557.50;6321050;28;20075;-70
2023/09/26 00:54:36;;;;;;;9.43;5.63;;;;;;;12.15;61.63;97555.56;6322670;28;20048;-70
2023/09/26 00:57:41;;;;;;;7.70;5.07;;;;;;;12.18;61.84;97557.16;6322311;28;20092;-69
2023/09/26 01:00:48;;;;;;;8.88;5.85;;;;;;;12.22;61.68;97556.03;6321332;28;20052;-70
2023/09/26 01:03:49;;;;;;;10.40;5.38;;;;;;;12.23;62.01;97549.78;6322164;28;20516;-70
2023/09/26 01:06:50;;;;;;;8.73;6.32;;;;;;;12.25;61.84;97553.19;6319823;28;20418;-70
2023/09/26 01:09:55;;;;;;;7.90;5.68;;;;;;;12.19;61.82;97559.69;6321550;28;20052;-70
2023/09/26 01:12:59;;;;;;;7.35;5.70;;;;;;;12.10;61.96;97547.91;6320422;28;20391;-69
2023/09/26 01:16:14;;;;;;;8.85;5.78;;;;;;;12.12;62.22;97551.31;6321671;28;20055;-71
2023/09/26 01:19:17;;;;;;;9.60;5.53;;;;;;;12.10;61.98;97553.19;6322006;28;20044;-70
2023/09/26 01:22:26;;;;;;;7.10;5.75;;;;;;;12.07;62.00;97558.66;6322037;28;20075;-70
2023/09/26 01:25:40;;;;;;;10.10;6.55;;;;;;;12.01;61.91;97551.09;6321744;28;20576;-70
2023/09/26 01:28:42;;;;;;;9.20;6.07;;;;;;;12.03;62.06;97559.78;6320827;28;20044;-70
2023/09/26 01:31:43;;;;;;;6.57;5.47;;;;;;;12.00;62.31;97567.88;6321130;28;20070;-70
2023/09/26 01:34:49;;;;;;;8.32;5.80;;;;;;;11.99;62.13;97563.53;6321362;28;20040;-70
2023/09/26 01:37:51;;;;;;;6.30;4.68;;;;;;;11.99;62.06;97563.53;6321443;28;20077;-70
2023/09/26 01:40:55;;;;;;;7.07;5.57;;;;;;;12.08;61.93;97572.69;6321191;28;20221;-70
2023/09/26 01:44:02;;;;;;;8.60;5.95;;;;;;;12.24;61.40;97562.91;6321330;28;20086;-70
2023/09/26 01:47:06;;;;;;;9.15;6.70;;;;;;;12.36;61.02;97572.72;6321414;28;20048;-69
2023/09/26 01:50:11;;;;;;;8.15;6.32;;;;;;;12.45;60.41;97576.56;6321246;28;20546;-70
2023/09/26 01:53:15;;;;;;;10.18;5.72;;;;;;;12.53;60.16;97569.03;6320581;28;20054;-70
2023/09/26 01:56:17;;;;;;;7.70;5.35;;;;;;;12.55;59.88;97569.81;6320007;28;20048;-70
2023/09/26 01:59:23;;;;;;;8.13;5.72;;;;;;;12.58;59.92;97568.75;6320121;28;20056;-70
2023/09/26 02:02:30;;;;;;;6.82;4.88;;;;;;;12.57;59.94;97575.84;6320858;28;20505;-71
2023/09/26 02:05:34;;;;;;;10.52;5.65;;;;;;;12.65;59.73;97563.94;6319962;28;20051;-70
2023/09/26 02:08:38;;;;;;;6.47;5.18;;;;;;;12.69;59.64;97576.03;6319545;28;20448;-69
2023/09/26 02:11:40;;;;;;;8.50;4.95;;;;;;;12.65;59.53;97571.84;6320562;28;20422;-69
2023/09/26 02:14:50;;;;;;;7.00;5.30;;;;;;;12.75;59.26;97584.41;6320392;28;20039;-71
2023/09/26 02:17:54;;;;;;;8.20;5.03;;;;;;;12.71;59.19;97577.63;6319214;28;20063;-70
2023/09/26 02:20:56;;;;;;;8.43;5.25;;;;;;;12.80;59.01;97578.84;6319552;28;20525;-70
2023/09/26 02:24:00;;;;;;;8.68;5.68;;;;;;;12.82;58.57;97584.84;6319868;28;20417;-70
2023/09/26 02:27:01;;;;;;;9.40;5.40;;;;;;;12.83;58.60;97576.00;6318787;28;20353;-70
2023/09/26 02:30:06;;;;;;;9.30;6.80;;;;;;;12.94;58.46;97594.69;6320246;28;20048;-71
2023/09/26 02:33:08;;;;;;;7.85;5.68;;;;;;;12.94;58.29;97589.41;6319497;28;20058;-70
2023/09/26 02:36:12;;;;;;;6.68;5.13;;;;;;;12.98;58.22;97584.75;6319902;28;20576;-70
2023/09/26 02:39:17;;;;;;;8.02;5.85;;;;;;;13.01;57.98;97595.97;6319541;28;20044;-70
2023/09/26 02:42:19;;;;;;;8.70;4.85;;;;;;;12.84;58.12;97556.56;6318562;28;20406;-71
2023/09/26 02:45:22;;;;;;;7.32;5.20;;;;;;;13.10;57.79;97583.13;6318645;28;20040;-70
2023/09/26 02:48:25;;;;;;;5.80;4.53;;;;;;;13.15;57.80;97586.31;6319636;28;20055;-70
2023/09/26 02:51:28;;;;;;;6.90;5.32;;;;;;;13.18;57.78;97586.13;6319229;28;20048;-70
2023/09/26 02:54:32;;;;;;;10.05;5.63;;;;;;;13.24;57.67;97586.56;6317912;28;20044;-70
2023/09/26 02:57:36;;;;;;;7.30;5.18;;;;;;;13.33;57.28;97585.16;6319289;28;20048;-70
2023/09/26 03:00:42;;;;;;;8.43;5.18;;;;;;;13.43;57.09;97586.28;6318728;28;20043;-70
2023/09/26 03:03:44;;;;;;;5.53;4.65;;;;;;;13.53;56.76;97590.94;6318197;28;20048;-70
2023/09/26 03:06:48;;;;;;;7.25;4.75;;;;;;;13.67;56.58;97588.25;6318235;28;20063;-70
2023/09/26 03:09:52;;;;;;;5.93;4.53;;;;;;;13.80;56.21;97589.16;6319212;28;20406;-70
2023/09/26 03:12:55;;;;;;;;;;;;;;;13.93;55.77;97592.69;6319596;28;20406;-70
2023/09/26 03:16:04;;;;;;;6.82;4.95;;;;;;;14.12;55.59;97594.06;6319321;28;19926;-70
2023/09/26 03:19:12;;;;;;;5.22;3.80;;;;;;;14.33;55.06;97594.44;6318915;28;20052;-70
2023/09/26 03:22:14;;;;;;;5.68;4.18;;;;;;;14.53;54.35;97593.09;6318737;28;20044;-70
2023/09/26 03:25:16;;;;;;;8.43;4.43;;;;;;;14.75;53.70;97590.63;6318639;28;20105;-69
2023/09/26 03:28:21;;;;;;;7.38;3.85;;;;;;;14.94;53.44;97589.31;6318730;28;20130;-69
2023/09/26 03:31:23;;;;;;;8.35;3.95;;;;;;;15.10;53.13;97591.72;6318747;28;20524;-69
2023/09/26 03:34:26;;;;;;;7.50;3.90;;;;;;;15.27;52.61;97597.50;6321319;28;20044;-69
2023/09/26 03:37:31;;;;;;;11.45;4.45;;;;;;;15.41;52.46;97590.34;6319067;28;20490;-69
2023/09/26 03:40:36;;;;;;;6.80;4.50;;;;;;;15.55;52.01;97592.00;6318540;28;20520;-70
2023/09/26 03:43:38;;;;;;;8.50;4.70;;;;;;;15.67;51.70;97589.28;6318101;28;20040;-69
2023/09/26 03:46:39;;;;;;;5.22;4.22;;;;;;;15.78;51.38;97577.06;6318476;28;20043;-70
2023/09/26 03:49:43;;;;;;;9.93;3.80;;;;;;;15.92;51.21;97590.97;6318679;28;20123;-69
2023/09/26 03:52:47;;;;;;;8.60;4.20;;;;;;;15.98;51.05;97592.31;6318110;28;20056;-69
2023/09/26 03:55:54;;;;;;;5.13;3.50;;;;;;;15.88;51.05;97578.03;6317357;28;20043;-69
2023/09/26 03:58:57;;;;;;;5.63;3.63;;;;;;;15.99;50.91;97601.97;6316941;28;20513;-69
2023/09/26 04:02:01;;;;;;;6.47;3.72;;;;;;;15.98;50.90;97599.44;6318206;28;20044;-69
2023/09/26 04:05:05;;;;;;;9.75;4.18;;;;;;;16.01;50.52;97600.06;6318382;28;20048;-69
2023/09/26 04:08:07;;;;;;;6.97;4.22;;;;;;;16.06;50.16;97597.91;6318432;28;20508;-69
2023/09/26 04:11:17;;;;;;;8.88;3.70;;;;;;;16.17;49.83;97600.59;6318657;28;20036;-68
2023/09/26 04:14:24;;;;;;;7.28;3.95;;;;;;;16.25;49.53;97593.84;6318381;28;20044;-70
2023/09/26 04:17:29;;;;;;;6.88;3.22;;;;;;;16.37;49.49;97600.88;6321686;28;20428;-70
2023/09/26 04:20:36;;;;;;;8.60;4.93;;;;;;;16.52;49.15;97605.00;6323367;28;20056;-70
2023/09/26 04:23:43;;;;;;;10.23;6.20;;;;;;;16.73;48.47;97606.97;6322374;28;20051;-70
2023/09/26 04:26:52;;;;;;;15.90;9.07;;;;;;;16.92;48.16;97601.94;6323187;28;20040;-70
2023/09/26 04:29:53;;;;;;;17.90;9.93;;;;;;;17.21;47.39;97606.72;6321839;28;20036;-70
2023/09/26 04:32:57;;;;;;;18.85;10.63;;;;;;;17.47;46.84;97605.50;6322260;28;20506;-69
2023/09/26 04:36:01;;;;;;;19.02;9.55;;;;;;;17.69;46.32;97614.38;6322504;28;20048;-69
2023/09/26 04:39:03;;;;;;;11.00;5.53;;;;;;;17.94;45.70;97616.72;6322303;28;20142;-70
2023/09/26 04:42:04;;;;;;;5.90;4.10;;;;;;;18.13;44.91;97621.38;6322548;28;20413;-69
2023/09/26 04:45:06;;;;;;;7.15;3.53;;;;;;;18.31;44.27;97634.97;6322269;28;20048;-70
2023/09/26 04:48:08;;;;;;;5.72;3.25;;;;;;;18.51;43.95;97632.44;6321630;28;20043;-70
2023/09/26 04:51:14;;;;;;;6.15;3.90;;;;;;;18.80;43.79;97625.50;6322105;28;20040;-70
2023/09/26 04:54:15;;;;;;;5.50;3.50;;;;;;;19.12;43.23;97621.84;6322142;28;20063;-70
2023/09/26 04:57:21;;;;;;;7.32;3.17;;;;;;;19.42;42.33;97620.09;6322169;28;20044;-70
2023/09/26 05:00:23;;;;;;;5.55;2.80;;;;;;;19.68;41.76;97610.66;6323346;28;20056;-69
2023/09/26 05:03:25;;;;;;;4.45;3.00;;;;;;;20.08;41.25;97623.03;6323345;28;20052;-69
2023/09/26 05:06:32;;;;;;;5.78;3.08;;;;;;;20.49;39.94;97626.38;6322526;28;20052;-69
2023/09/26 05:09:34;;;;;;;7.32;3.70;;;;;;;20.85;38.83;97615.91;6323529;28;20036;-70
2023/09/26 05:12:40;;;;;;;7.55;3.08;;;;;;;21.26;37.84;97613.78;6321160;28;20044;-70
2023/09/26 05:15:47;;;;;;;6.53;2.95;;;;;;;21.58;37.08;97623.22;6322325;28;20044;-69
2023/09/26 05:18:53;;;;;;;5.72;3.25;;;;;;;21.90;36.93;97636.97;6322345;28;20036;-70
2023/09/26 05:21:54;;;;;;;6.15;3.70;;;;;;;22.14;36.37;97646.25;6321743;28;20498;-69
2023/09/26 05:24:58;;;;;;;9.60;3.90;;;;;;;22.16;36.25;97631.66;6321219;28;20039;-69
2023/09/26 05:28:02;;;;;;;5.65;4.18;;;;;;;22.21;35.95;97631.25;6320730;28;20130;-70
2023/09/26 05:31:08;;;;;;;6.70;4.40;;;;;;;22.26;35.10;97631.63;6321585;28;20040;-69
2023/09/26 05:34:11;;;;;;;6.72;3.40;;;;;;;22.36;35.14;97640.44;6321338;28;20524;-69
2023/09/26 05:37:15;;;;;;;6.05;3.53;;;;;;;22.78;34.03;97639.75;6320157;28;20043;-70
2023/09/26 05:40:18;;;;;;;8.23;4.18;;;;;;;22.93;33.80;97641.84;6319552;28;20044;-69
2023/09/26 05:43:27;;;;;;;8.30;4.07;;;;;;;23.83;33.10;97634.22;6321375;28;20040;-69
2023/09/26 05:46:28;;;;;;;6.10;3.95;;;;;;;24.36;31.92;97633.81;6321289;28;20036;-69
2023/09/26 05:49:30;;;;;;;10.20;5.10;;;;;;;24.30;32.02;97647.94;6320385;28;20052;-69
2023/09/26 05:52:34;;;;;;;11.88;5.82;;;;;;;24.12;32.52;97645.41;6321207;28;20039;-69
2023/09/26 05:55:38;;;;;;;9.40;4.10;;;;;;;24.07;32.55;97653.09;6320468;28;20048;-68
2023/09/26 05:58:46;;;;;;;4.93;3.53;;;;;;;24.81;31.09;97602.84;6320577;28;20139;-69
2023/09/26 06:01:51;;;;;;;5.43;3.90;;;;;;;25.64;30.28;97651.94;6320831;28;20040;-70
2023/09/26 06:04:56;;;;;;;8.13;3.97;;;;;;;25.29;30.29;97625.28;6320131;28;20052;-68
2023/09/26 06:07:58;;;;;;;7.18;3.80;;;;;;;25.16;30.49;97653.78;6318741;28;20133;-68
2023/09/26 06:11:02;;;;;;;5.73;3.27;;;;;;;24.75;30.93;97651.16;6320735;28;20063;-69
2023/09/26 06:14:03;;;;;;;5.00;3.38;;;;;;;24.48;31.45;97650.47;6320212;28;20058;-69
2023/09/26 06:17:07;;;;;;;7.88;3.88;;;;;;;24.17;31.54;97647.56;6319695;28;20040;-69
2023/09/26 06:20:09;;;;;;;7.75;4.13;;;;;;;24.20;31.63;97652.59;6320516;28;20527;-69
2023/09/26 06:23:13;;;;;;;6.13;3.47;;;;;;;25.02;30.47;97653.44;6320432;28;20408;-69
2023/09/26 06:26:15;;;;;;;3.60;2.97;;;;;;;25.82;29.11;97654.34;6320091;28;20059;-69
2023/09/26 06:29:17;;;;;;;6.38;3.47;;;;;;;27.03;27.52;97656.34;6320195;28;20347;-69
2023/09/26 06:32:18;;;;;;;5.78;3.08;;;;;;;28.81;25.77;97653.31;6319750;28;20064;-69
2023/09/26 06:35:20;;;;;;;4.15;3.38;;;;;;;29.40;25.10;97652.91;6320775;28;20040;-68
2023/09/26 06:38:22;;;;;;;8.60;3.80;;;;;;;28.33;25.81;97650.34;6318050;28;20048;-69
2023/09/26 06:41:28;;;;;;;4.72;3.40;;;;;;;26.71;27.36;97644.84;6319617;28;20079;-70
2023/09/26 06:44:32;;;;;;;4.82;3.05;;;;;;;25.29;28.98;97638.75;6319494;28;20568;-70
2023/09/26 06:47:36;;;;;;;5.60;3.83;;;;;;;24.26;31.01;97651.97;6319981;28;20044;-70
2023/09/26 06:50:43;;;;;;;8.27;4.60;;;;;;;23.41;32.34;97651.19;6319741;28;20501;-70
2023/09/26 06:53:48;;;;;;;8.02;3.47;;;;;;;22.77;33.35;97654.16;6319425;28;20513;-69
2023/09/26 06:56:51;;;;;;;9.48;4.22;;;;;;;22.37;34.07;97650.16;6320026;28;20624;-70
2023/09/26 06:59:53;;;;;;;8.38;4.30;;;;;;;21.98;34.72;97637.03;6319432;28;20055;-69
2023/09/26 07:03:00;;;;;;;7.32;4.05;;;;;;;21.81;35.36;97648.59;6319483;28;20413;-70
2023/09/26 07:06:08;;;;;;;5.10;3.60;;;;;;;21.69;36.00;97644.44;6318957;28;20047;-70
2023/09/26 07:09:13;;;;;;;10.68;5.90;;;;;;;21.36;36.67;97646.69;6318742;28;20060;-69
2023/09/26 07:12:17;;;;;;;10.95;5.95;;;;;;;21.16;37.19;97662.00;6319235;28;20093;-70
2023/09/26 07:15:28;;;;;;;9.40;5.75;;;;;;;20.96;37.77;97650.50;6319214;28;20044;-69
2023/09/26 07:18:33;;;;;;;10.15;6.72;;;;;;;20.98;38.06;97659.25;6318946;28;20517;-70
2023/09/26 07:21:37;;;;;;;13.52;6.05;;;;;;;20.97;37.88;97652.19;6319058;28;20055;-70
2023/09/26 07:24:41;;;;;;;12.25;6.43;;;;;;;21.15;37.78;97651.47;6318723;28;20062;-70
2023/09/26 07:27:45;;;;;;;9.57;5.70;;;;;;;21.29;37.63;97659.00;6319004;28;20044;-69
2023/09/26 07:30:47;;;;;;;8.90;5.05;;;;;;;21.56;37.11;97665.38;6318721;28;20070;-69
2023/09/26 07:33:52;;;;;;;10.93;6.72;;;;;;;21.68;36.97;97661.50;6318267;28;20044;-69
2023/09/26 07:36:53;;;;;;;7.65;5.07;;;;;;;21.85;36.77;97651.81;6318211;28;20048;-69
2023/09/26 07:40:03;;;;;;;6.65;4.25;;;;;;;22.32;35.83;97655.16;6318845;28;20048;-69
2023/09/26 07:43:08;;;;;;;9.23;4.00;;;;;;;23.51;34.15;97657.28;6319057;28;20497;-70
2023/09/26 07:46:15;;;;;;;7.20;4.30;;;;;;;26.39;30.38;97659.44;6318835;28;20043;-70
2023/09/26 07:49:20;;;;;;;5.55;4.05;;;;;;;31.39;24.19;97668.81;6318567;28;20048;-69
2023/09/26 07:52:26;;;;;;;7.38;4.00;;;;;;;35.86;20.27;97677.41;6322716;28;20047;-67
2023/09/26 07:55:31;;;;;;;7.35;4.30;;;;;;;38.19;17.70;97666.19;6324248;28;20047;-68
2023/09/26 07:58:36;;;;;;;6.00;4.18;;;;;;;39.63;16.28;97668.22;6323805;28;20456;-68
2023/09/26 08:01:42;;;;;;;8.13;3.45;;;;;;;39.79;15.55;97636.13;6322952;28;20264;-69
2023/09/26 08:04:48;;;;;;;3.95;2.95;;;;;;;36.82;17.45;97657.59;6322275;28;20060;-69
2023/09/26 08:07:55;;;;;;;6.40;3.60;;;;;;;34.52;19.79;97652.59;6323562;28;20039;-68
2023/09/26 08:10:57;;;;;;;6.10;2.70;;;;;;;36.25;18.35;97654.91;6323474;28;20044;-68
2023/09/26 08:14:01;;;;;;;6.82;2.80;;;;;;;38.26;16.65;97644.81;6323741;28;20043;-68
2023/09/26 08:17:04;;;;;;;5.03;2.80;;;;;;;39.51;15.79;97654.69;6323635;28;20693;-70
2023/09/26 08:20:08;;;;;;;4.70;3.05;;;;;;;40.35;15.40;97648.16;6322788;28;20051;-68
2023/09/26 08:23:15;;;;;;;5.70;2.80;;;;;;;40.01;15.27;97658.78;6323450;28;20040;-68
2023/09/26 08:26:25;;;;;;;8.05;3.03;;;;;;;38.19;16.80;97655.19;6321954;28;20093;-69
2023/09/26 08:29:29;;;;;;;8.48;3.42;;;;;;;36.95;17.83;97646.31;6323033;28;20055;-68
2023/09/26 08:32:30;;;;;;;4.47;3.17;;;;;;;35.50;18.88;97642.94;6322873;28;20429;-68
2023/09/26 08:35:38;;;;;;;6.28;3.78;;;;;;;33.21;21.24;97644.75;6322694;28;20201;-70
2023/09/26 08:38:43;;;;;;;5.72;4.00;;;;;;;32.39;22.52;97633.00;6321293;28;20063;-69
2023/09/26 08:41:46;;;;;;;5.30;3.90;;;;;;;34.75;20.53;97644.47;6322389;28;20422;-70
2023/09/26 08:44:54;;;;;;;5.55;3.80;;;;;;;36.29;19.06;97637.72;6322826;28;20048;-69
2023/09/26 08:47:58;;;;;;;7.63;4.22;;;;;;;35.09;20.04;97645.59;6322326;28;20044;-69
2023/09/26 08:51:02;;;;;;;6.90;4.57;;;;;;;32.35;22.24;97631.78;6322042;28;20509;-68
2023/09/26 08:54:04;;;;;;;9.48;4.68;;;;;;;31.20;24.07;97637.03;6321641;28;20047;-68
2023/09/26 08:57:08;;;;;;;6.40;4.18;;;;;;;31.68;23.42;97640.28;6322215;28;20043;-71
2023/09/26 09:00:13;;;;;;;5.95;4.75;;;;;;;30.78;24.70;97631.81;6321397;28;20132;-70
2023/09/26 09:03:17;;;;;;;7.75;4.88;;;;;;;29.08;26.62;97630.84;6320920;28;20510;-70
2023/09/26 09:06:18;;;;;;;10.88;4.72;;;;;;;28.99;26.82;97618.44;6321825;28;20068;-69
2023/09/26 09:09:20;;;;;;;5.60;4.68;;;;;;;31.45;24.63;97618.16;6321944;28;20345;-69
2023/09/26 09:12:24;;;;;;;7.95;5.00;;;;;;;34.24;21.18;97629.47;6321304;28;20051;-70
2023/09/26 09:15:27;;;;;;;5.55;4.35;;;;;;;34.34;20.67;97635.22;6321475;28;20059;-70
2023/09/26 09:18:34;;;;;;;11.45;4.40;;;;;;;32.71;21.96;97630.28;6321726;28;20521;-68
2023/09/26 09:21:40;;;;;;;6.40;4.30;;;;;;;32.58;21.74;97629.34;6321663;28;20040;-68
2023/09/26 09:24:53;;;;;;;6.15;3.90;;;;;;;33.75;21.13;97634.09;6321639;28;20123;-68
2023/09/26 09:28:01;;;;;;;5.78;4.55;;;;;;;34.12;20.25;97634.06;6321478;28;20040;-69
2023/09/26 09:31:05;;;;;;;7.35;5.07;;;;;;;34.83;19.18;97641.38;6320746;28;20048;-68
2023/09/26 09:34:07;;;;;;;4.07;3.10;;;;;;;34.84;18.90;97643.03;6321370;28;20082;-68
2023/09/26 09:37:12;;;;;;;3.60;3.10;;;;;;;34.51;19.57;97639.97;6322322;28;20509;-70
2023/09/26 09:40:22;;;;;;;5.05;2.97;;;;;;;34.38;19.53;97641.84;6320850;28;20055;-69
2023/09/26 09:43:25;;;;;;;3.45;3.15;;;;;;;35.33;18.88;97644.75;6320632;28;20052;-70
2023/09/26 09:46:27;;;;;;;4.45;3.22;;;;;;;35.47;18.34;97640.66;6320603;28;20051;-69
2023/09/26 09:49:40;;;;;;;5.43;3.72;;;;;;;35.43;18.46;97636.75;6320317;28;20044;-69
2023/09/26 09:52:43;;;;;;;5.35;3.15;;;;;;;35.08;18.73;97643.09;6320869;28;20058;-69
2023/09/26 09:55:52;;;;;;;6.65;3.17;;;;;;;34.14;19.32;97648.28;6321298;28;20040;-69
2023/09/26 09:59:05;;;;;;;4.57;3.40;;;;;;;34.79;18.95;97644.81;6321002;28;20052;-69
2023/09/26 10:02:10;;;;;;;4.72;3.00;;;;;;;35.35;18.34;97648.06;6320174;28;20082;-69
2023/09/26 10:05:19;;;;;;;4.03;2.60;;;;;;;33.59;19.80;97640.16;6319942;28;20051;-69
2023/09/26 10:08:22;;;;;;;5.05;3.60;;;;;;;32.73;20.32;97636.34;6320485;28;20425;-69
2023/09/26 10:11:26;;;;;;;5.93;3.28;;;;;;;31.61;21.46;97644.06;6320779;28;20040;-69
2023/09/26 10:14:31;;;;;;;5.13;2.97;;;;;;;33.08;20.04;97637.50;6319803;28;20040;-69
2023/09/26 10:17:35;;;;;;;3.78;2.92;;;;;;;31.93;20.67;97642.28;6320574;28;20040;-69
2023/09/26 10:20:41;;;;;;;4.95;3.42;;;;;;;31.38;21.51;97644.56;6319051;28;20101;-69
2023/09/26 10:24:12;;;;;;;5.38;3.72;;;;;;;30.52;22.78;97639.97;6319676;28;20044;-69
2023/09/26 10:27:30;;;;;;;4.85;2.70;;;;;;;30.13;23.09;97636.13;6319848;28;20635;-69
2023/09/26 10:30:46;;;;;;;3.00;2.67;;;;;;;29.98;23.60;97637.13;6319293;28;20063;-70
2023/09/26 10:33:56;;;;;;;6.43;3.65;;;;;;;30.13;23.14;97627.97;6317801;28;20068;-70
2023/09/26 10:36:59;;;;;;;6.65;3.85;;;;;;;31.42;22.23;97643.06;6319556;28;20044;-70
2023/09/26 10:40:00;;;;;;;6.03;5.03;;;;;;;32.00;21.20;97625.94;6319220;28;20040;-70
2023/09/26 10:43:02;;;;;;;4.88;3.60;;;;;;;30.54;22.60;97646.03;6319403;28;20084;-69
2023/09/26 10:46:04;;;;;;;7.30;3.83;;;;;;;30.30;23.15;97637.44;6318808;28;20040;-69
2023/09/26 10:49:07;;;;;;;4.57;2.58;;;;;;;30.18;23.71;97641.78;6319810;28;20429;-69
2023/09/26 10:52:14;;;;;;;4.93;3.17;;;;;;;30.80;23.33;97637.06;6318956;28;20051;-69
2023/09/26 10:55:19;;;;;;;5.22;3.20;;;;;;;31.15;22.39;97643.09;6318911;28;20051;-69
2023/09/26 10:58:25;;;;;;;6.53;3.05;;;;;;;31.61;22.23;97649.50;6317241;28;20055;-69
2023/09/26 11:01:37;;;;;;;6.47;3.40;;;;;;;31.23;22.85;97642.88;6319472;28;20493;-69
2023/09/26 11:04:44;;;;;;;4.25;3.03;;;;;;;32.46;21.33;97636.53;6318935;28;20537;-69
2023/09/26 11:07:48;;;;;;;4.63;3.17;;;;;;;33.80;19.89;97642.44;6319048;28;20048;-69
2023/09/26 11:10:52;;;;;;;8.20;4.15;;;;;;;33.80;20.19;97655.22;6319028;28;20040;-69
2023/09/26 11:13:58;;;;;;;13.38;4.10;;;;;;;31.39;22.73;97652.47;6319355;28;20228;-69
2023/09/26 11:16:59;;;;;;;6.70;3.45;;;;;;;29.11;25.22;97648.56;6318472;28;20040;-69
2023/09/26 11:20:09;;;;;;;8.57;3.65;;;;;;;27.82;26.86;97655.81;6319042;28;20559;-70
2023/09/26 11:23:35;;;;;;;10.35;3.70;;;;;;;26.25;28.83;97658.34;6319026;28;20047;-70
2023/09/26 11:26:40;;;;;;;10.45;4.95;;;;;;;24.91;30.48;97661.03;6317944;28;20263;-70
2023/09/26 11:29:42;;;;;;;3.05;2.10;;;;;;;24.22;31.07;97655.16;6318068;28;20055;-69
2023/09/26 11:32:53;;;;;;;2.20;1.70;;;;;;;24.54;30.51;97660.59;6318498;28;20066;-69
2023/09/26 11:35:55;;;;;;;10.13;2.22;;;;;;;26.25;27.84;97666.44;6316934;28;20048;-71
2023/09/26 11:39:06;;;;;;;4.10;2.05;;;;;;;27.43;26.40;97673.16;6318443;28;20127;-71
2023/09/26 11:42:11;;;;;;;6.45;1.65;;;;;;;27.66;25.75;97670.38;6319054;28;20066;-71
2023/09/26 11:45:23;;;;;;;5.43;1.58;;;;;;;27.94;25.36;97682.22;6318225;28;20186;-70
2023/09/26 11:48:26;;;;;;;5.65;1.70;;;;;;;28.25;25.02;97685.66;6316550;28;20055;-69
2023/09/26 11:51:33;;;;;;;2.90;1.10;;;;;;;28.53;24.75;97694.72;6318603;28;20360;-70
2023/09/26 11:54:39;;;;;;;5.07;1.90;;;;;;;28.60;24.20;97703.75;6317723;28;20135;-70
2023/09/26 11:57:43;;;;;;;4.43;1.60;;;;;;;28.36;23.99;97698.69;6317912;28;20421;-70
2023/09/26 12:00:47;;;;;;;4.43;1.65;;;;;;;28.15;24.02;97704.91;6317657;28;20178;-70
2023/09/26 12:03:49;;;;;;;3.00;1.30;;;;;;;28.17;24.09;97711.81;6317734;28;20056;-70
2023/09/26 12:06:54;;;;;;;4.95;1.63;;;;;;;28.46;24.08;97710.06;6317957;28;20048;-70
2023/09/26 12:09:58;;;;;;;2.90;1.38;;;;;;;28.61;23.99;97710.84;6317651;28;20051;-70
2023/09/26 12:13:06;;;;;;;1.92;1.50;;;;;;;28.78;24.09;97707.88;6317681;28;20044;-70
2023/09/26 12:16:08;;;;;;;4.95;2.03;;;;;;;28.18;24.44;97708.06;6317846;28;20406;-70
2023/09/26 12:19:14;;;;;;;5.93;1.65;;;;;;;27.52;25.02;97702.63;6317730;28;20036;-71
2023/09/26 12:22:18;;;;;;;7.30;1.95;;;;;;;27.31;25.43;97708.75;6317262;28;20421;-69
2023/09/26 12:25:22;;;;;;;4.20;2.15;;;;;;;26.90;26.01;97710.19;6317717;28;20039;-70
2023/09/26 12:28:24;;;;;;;4.20;1.70;;;;;;;26.33;26.52;97706.88;6316987;28;20086;-70
2023/09/26 12:31:25;;;;;;;4.68;1.60;;;;;;;25.83;27.14;97708.13;6317025;28;20044;-70
2023/09/26 12:34:30;;;;;;;2.55;1.50;;;;;;;25.69;27.25;97706.16;6317514;28;20052;-70
2023/09/26 12:37:36;;;;;;;3.72;1.60;;;;;;;25.17;27.98;97698.56;6321116;28;20066;-70
2023/09/26 12:40:37;;;;;;;3.08;1.77;;;;;;;24.88;28.92;97705.28;6322472;28;20418;-70
2023/09/26 12:43:44;;;;;;;2.28;1.20;;;;;;;24.23;29.10;97705.22;6322258;28;20048;-69
2023/09/26 12:46:45;;;;;;;1.88;1.10;;;;;;;23.26;30.56;97708.19;6322010;28;20055;-69
2023/09/26 12:49:50;;;;;;;2.00;1.40;;;;;;;22.84;31.19;97718.75;6322274;28;20075;-70
2023/09/26 12:52:56;;;;;;;2.30;1.70;;;;;;;22.72;31.32;97704.75;6321457;28;20051;-70
2023/09/26 12:55:58;;;;;;;4.22;1.63;;;;;;;22.68;31.40;97702.56;6321773;28;20528;-70
2023/09/26 12:59:03;;;;;;;1.77;1.35;;;;;;;22.46;31.54;97714.59;6322141;28;20077;-70
2023/09/26 13:02:10;;;;;;;5.88;1.30;;;;;;;22.01;32.30;97710.09;6322397;28;20048;-69
2023/09/26 13:05:12;;;;;;;3.40;1.00;;;;;;;21.75;32.58;97722.34;6321066;28;20425;-70
2023/09/26 13:08:20;;;;;;;4.68;1.83;;;;;;;21.42;32.88;97721.09;6321830;28;20484;-69
2023/09/26 13:11:24;;;;;;;1.58;1.40;;;;;;;21.18;33.49;97718.06;6321606;28;20127;-69
2023/09/26 13:14:28;;;;;;;5.35;2.00;;;;;;;20.87;34.19;97718.28;6321620;28;20036;-72
2023/09/26 13:17:32;;;;;;;8.98;2.83;;;;;;;20.67;34.81;97719.28;6320801;28;20081;-70
2023/09/26 13:20:36;;;;;;;8.77;3.40;;;;;;;20.37;35.27;97723.75;6319932;28;20513;-70
2023/09/26 13:23:39;;;;;;;10.10;3.30;;;;;;;20.07;36.17;97725.56;6321890;28;20039;-70
2023/09/26 13:26:46;;;;;;;5.88;2.63;;;;;;;19.71;36.68;97725.19;6321274;28;20051;-69
2023/09/26 13:29:47;;;;;;;6.03;2.05;;;;;;;19.38;36.95;97728.13;6321055;28;20050;-69
2023/09/26 13:32:54;;;;;;;4.25;1.85;;;;;;;19.10;37.74;97738.50;6320135;28;20499;-70
2023/09/26 13:35:55;;;;;;;5.30;2.03;;;;;;;18.78;38.35;97733.25;6320735;28;20059;-69
2023/09/26 13:38:59;;;;;;;2.95;1.52;;;;;;;18.54;38.90;97728.13;6321307;28;20044;-71
2023/09/26 13:42:06;;;;;;;5.88;1.70;;;;;;;18.39;39.43;97739.09;6321234;28;20040;-71
2023/09/26 13:45:10;;;;;;;5.45;2.08;;;;;;;18.27;39.68;97739.25;6321230;28;20491;-68
2023/09/26 13:48:13;;;;;;;5.88;1.38;;;;;;;18.12;40.29;97742.22;6319929;28;20044;-69
2023/09/26 13:51:20;;;;;;;1.98;1.48;;;;;;;17.92;40.57;97757.16;6319748;28;20044;-69
2023/09/26 13:54:22;;;;;;;4.72;1.67;;;;;;;17.77;40.82;97747.69;6319883;28;20044;-69
2023/09/26 13:57:26;;;;;;;6.03;1.58;;;;;;;17.61;41.14;97752.56;6319994;28;20052;-69
2023/09/26 14:00:32;;;;;;;3.47;1.80;;;;;;;17.44;41.60;97746.75;6320823;28;20096;-69
2023/09/26 14:03:37;;;;;;;10.85;2.55;;;;;;;17.33;41.84;97749.41;6320572;28;20532;-69
2023/09/26 14:06:40;;;;;;;12.02;2.38;;;;;;;17.23;42.04;97756.41;6319756;28;20398;-70
2023/09/26 14:09:47;;;;;;;9.00;1.73;;;;;;;17.11;42.33;97757.38;6320209;28;20044;-69
2023/09/26 14:12:49;;;;;;;6.00;1.48;;;;;;;16.97;42.48;97756.59;6318770;28;20113;-69
2023/09/26 14:15:55;;;;;;;4.47;1.52;;;;;;;16.86;42.95;97756.59;6320288;28;20044;-70
2023/09/26 14:19:02;;;;;;;4.03;1.70;;;;;;;16.72;43.13;97748.78;6320564;28;20048;-70
2023/09/26 14:22:03;;;;;;;4.63;1.90;;;;;;;16.61;43.50;97752.25;6320723;28;20047;-69
2023/09/26 14:25:11;;;;;;;5.60;2.35;;;;;;;16.55;44.15;97766.84;6319493;28;20044;-69
2023/09/26 14:28:14;;;;;;;4.28;2.20;;;;;;;16.50;44.65;97771.66;6320775;28;20524;-69
2023/09/26 14:31:20;;;;;;;6.00;2.28;;;;;;;16.37;45.12;97769.06;6320625;28;20052;-70